»·PEaware :: N660WC KMRY-KTVL

N660WC :: KMRY-KTVL

FLIGHT INFORMATION

Flight Status: Arrived
Operator: Privately registered:
United States
More flights under this callsign
Pilot: John H. (7647)
Aircraft: CESSNA T210 TURBO CENTURION
(T210)
More flights by this aircraft type
Origin: KMRY Monterey Peninsula
United States
Destination: KTVL Lake Tahoe
United States
More flights between these airports :: More routes between these airports
Route: SNS V111 MOD V113 LIN HNW SWR KINGS
File this flight plan on PilotEdge
Remarks:
Altitude:
(Current/Filed)
11,500ft
Speed:
(Current/Filed)
170kts
Departed: 18-Aug-18 04:38 PM
Arrived: 18-Aug-18 06:02 PM
Distance/Time
Traveled:
164nm/1:24
Distance/Time
To Go:
Arrived

Flight Plot

Page will automatically refresh every two minutes.

Flight plan parsing failed; only flown route is shown


Map Options




Map Legend


Flown Route
Filed Route
Departure Airport
Arrival Airport
Navaid (VOR, NDB)
Fix

Horizontal Profiles

Position Reports

Time Latitude Longitude Heading Altitude Ground
Speed
18-Aug-18 16:15 36.587915 -121.840359 111 217ft 0kts
18-Aug-18 16:16 36.587915 -121.840359 111 217ft 0kts
18-Aug-18 16:17 36.587915 -121.840358 111 217ft 0kts
18-Aug-18 16:18 36.587915 -121.840358 111 217ft 0kts
18-Aug-18 16:19 36.587915 -121.840358 111 217ft 0kts
18-Aug-18 16:20 36.587915 -121.840357 111 217ft 0kts
18-Aug-18 16:21 36.587915 -121.840359 111 217ft 0kts
18-Aug-18 16:22 36.587915 -121.840359 111 217ft 0kts
18-Aug-18 16:23 36.587915 -121.840359 111 217ft 0kts
18-Aug-18 16:24 36.587915 -121.840358 111 217ft 0kts
18-Aug-18 16:25 36.587915 -121.840359 111 217ft 0kts
18-Aug-18 16:26 36.587915 -121.840359 111 217ft 0kts
18-Aug-18 16:27 36.587915 -121.840358 111 217ft 0kts
18-Aug-18 16:28 36.587915 -121.840358 111 217ft 0kts
18-Aug-18 16:29 36.587915 -121.840358 111 217ft 0kts
18-Aug-18 16:30 36.587915 -121.840358 111 217ft 0kts
18-Aug-18 16:31 36.587915 -121.840358 111 217ft 0kts
18-Aug-18 16:32 36.587915 -121.840358 111 217ft 0kts
18-Aug-18 16:33 36.587915 -121.840358 111 217ft 0kts
18-Aug-18 16:34 36.587915 -121.840358 111 217ft 0kts
18-Aug-18 16:35 36.587510 -121.840320 91 220ft 0kts
18-Aug-18 16:36 36.586552 -121.837381 107 237ft 14kts
18-Aug-18 16:37 36.585168 -121.833576 208 243ft 0kts
18-Aug-18 16:38 36.585109 -121.833623 208 243ft 5kts
18-Aug-18 16:39 36.586595 -121.839372 293 316ft 71kts
18-Aug-18 16:40 36.600125 -121.871534 330 1102ft 118kts
18-Aug-18 16:41 36.625690 -121.844101 116 1923ft 140kts
18-Aug-18 16:42 36.616674 -121.792101 101 2468ft 163kts
18-Aug-18 16:43 36.620438 -121.740838 65 3322ft 144kts
18-Aug-18 16:44 36.634009 -121.696913 62 4296ft 132kts
18-Aug-18 16:45 36.646954 -121.656594 62 5362ft 119kts
18-Aug-18 16:46 36.658381 -121.621145 59 6511ft 102kts
18-Aug-18 16:47 36.676231 -121.595887 22 7587ft 100kts
18-Aug-18 16:48 36.700125 -121.579858 24 8742ft 98kts
18-Aug-18 16:49 36.724349 -121.563716 28 9783ft 104kts
18-Aug-18 16:50 36.750636 -121.546245 28 10799ft 113kts
18-Aug-18 16:51 36.775144 -121.529981 28 11517ft 132kts
18-Aug-18 16:52 36.812141 -121.505258 28 11499ft 166kts
18-Aug-18 16:53 36.854103 -121.477391 28 11476ft 174kts
18-Aug-18 16:54 36.893451 -121.451251 28 11476ft 176kts
18-Aug-18 16:55 36.936929 -121.422361 28 11476ft 179kts
18-Aug-18 16:56 36.981155 -121.393030 28 11477ft 180kts
18-Aug-18 16:57 37.025600 -121.363401 28 11449ft 182kts
18-Aug-18 16:58 37.068018 -121.335090 29 11449ft 182kts
18-Aug-18 16:59 37.111563 -121.305992 29 11447ft 183kts
18-Aug-18 17:00 37.152318 -121.278684 29 11538ft 177kts
18-Aug-18 17:01 37.189001 -121.254115 29 11540ft 185kts
18-Aug-18 17:02 37.228120 -121.227853 29 11485ft 187kts
18-Aug-18 17:03 37.272773 -121.197850 29 11484ft 185kts
18-Aug-18 17:04 37.317927 -121.167473 28 11483ft 185kts
18-Aug-18 17:05 37.361382 -121.138210 28 11484ft 184kts
18-Aug-18 17:06 37.405959 -121.108157 29 11484ft 182kts
18-Aug-18 17:07 37.448526 -121.079428 29 11484ft 181kts
18-Aug-18 17:08 37.492124 -121.049938 29 11486ft 181kts
18-Aug-18 17:09 37.533524 -121.021901 29 11485ft 181kts
18-Aug-18 17:10 37.576595 -120.992684 29 11487ft 181kts
18-Aug-18 17:11 37.618498 -120.964274 28 11487ft 181kts
18-Aug-18 17:12 37.668059 -120.962522 355 11485ft 182kts
18-Aug-18 17:13 37.716780 -120.967400 354 11487ft 182kts
18-Aug-18 17:14 37.767157 -120.972516 354 11484ft 182kts
18-Aug-18 17:15 37.817124 -120.977618 355 11489ft 182kts
18-Aug-18 17:16 37.867422 -120.982744 354 11487ft 183kts
18-Aug-18 17:17 37.917872 -120.987969 354 11486ft 182kts
18-Aug-18 17:18 37.968479 -120.993226 354 11484ft 183kts
18-Aug-18 17:19 38.018799 -120.998398 354 11581ft 178kts
18-Aug-18 17:20 38.069223 -121.003524 356 11486ft 185kts
18-Aug-18 17:21 38.116273 -120.988152 16 11593ft 180kts
18-Aug-18 17:22 38.161311 -120.970509 17 11592ft 182kts
18-Aug-18 17:23 38.209366 -120.951787 17 11592ft 183kts
18-Aug-18 17:24 38.257606 -120.932984 17 11596ft 183kts
18-Aug-18 17:25 38.304763 -120.914582 17 11594ft 183kts
18-Aug-18 17:26 38.352357 -120.895989 17 11593ft 183kts
18-Aug-18 17:27 38.400480 -120.877152 17 11593ft 184kts
18-Aug-18 17:28 38.447455 -120.858733 17 11506ft 189kts
18-Aug-18 17:29 38.496167 -120.839621 17 11500ft 185kts
18-Aug-18 17:30 38.543296 -120.821109 17 11501ft 184kts
18-Aug-18 17:31 38.589399 -120.802971 17 11501ft 184kts
18-Aug-18 17:32 38.637183 -120.784163 17 11499ft 184kts
18-Aug-18 17:33 38.684105 -120.765621 17 11501ft 184kts
18-Aug-18 17:34 38.730833 -120.743250 38 11503ft 183kts
18-Aug-18 17:35 38.770682 -120.701690 40 11303ft 191kts
18-Aug-18 17:36 38.805023 -120.665705 40 11301ft 182kts
18-Aug-18 17:37 38.841772 -120.627055 39 11452ft 167kts
18-Aug-18 17:38 38.872865 -120.594318 38 11464ft 163kts
18-Aug-18 17:39 38.907659 -120.557920 40 11481ft 164kts
18-Aug-18 17:40 38.942594 -120.521090 40 11480ft 163kts
18-Aug-18 17:41 38.977647 -120.484177 40 11480ft 163kts
18-Aug-18 17:42 39.007937 -120.441841 56 11451ft 163kts
18-Aug-18 17:43 39.030270 -120.398840 53 11453ft 162kts
18-Aug-18 17:44 39.055354 -120.350985 54 11485ft 167kts
18-Aug-18 17:45 39.080196 -120.303354 55 11477ft 168kts
18-Aug-18 17:46 39.104802 -120.256109 54 11477ft 168kts
18-Aug-18 17:47 39.129696 -120.208216 54 11478ft 168kts
18-Aug-18 17:48 39.155247 -120.159005 55 11480ft 168kts
18-Aug-18 17:49 39.180576 -120.110153 55 11477ft 168kts
18-Aug-18 17:50 39.206274 -120.060520 54 11476ft 168kts
18-Aug-18 17:51 39.231589 -120.011512 55 11479ft 168kts
18-Aug-18 17:52 39.250847 -119.956917 94 11316ft 173kts
18-Aug-18 17:53 39.222356 -119.931023 209 11312ft 129kts
18-Aug-18 17:54 39.187530 -119.947169 191 10800ft 148kts
18-Aug-18 17:55 39.144519 -119.952282 186 10142ft 170kts
18-Aug-18 17:56 39.098912 -119.960771 196 10043ft 163kts
18-Aug-18 17:57 39.052144 -119.970062 188 9468ft 176kts
18-Aug-18 17:58 39.010670 -119.975770 190 8704ft 128kts
18-Aug-18 17:59 38.978651 -119.972471 183 7884ft 110kts
18-Aug-18 18:00 38.950242 -119.978393 201 7339ft 96kts
18-Aug-18 18:01 38.925259 -119.985944 203 6713ft 94kts
18-Aug-18 18:02 38.901728 -119.992956 204 6269ft 67kts
18-Aug-18 18:03 38.899774 -119.995091 159 6270ft 0kts
18-Aug-18 18:04 38.899773 -119.995092 159 6270ft 0kts

Navigation Log

Ident Type
Flight plan parsing failed, navigation log unavailable